createdAt,value
2022-09-25T00:01:43.726Z,15.32
2022-09-25T00:04:13.591Z,15.18
2022-09-25T00:06:43.241Z,14.10
2022-09-25T00:09:18.479Z,15.07
2022-09-25T00:11:48.808Z,14.32
2022-09-25T00:14:19.170Z,15.45
2022-09-25T00:16:47.331Z,15.75
2022-09-25T00:19:42.745Z,15.60
2022-09-25T00:22:17.014Z,15.02
2022-09-25T00:25:03.578Z,14.55
2022-09-25T00:27:31.227Z,16.13
2022-09-25T00:30:05.264Z,16.17
2022-09-25T00:32:32.749Z,16.10
2022-09-25T00:35:00.258Z,15.63
2022-09-25T00:37:30.476Z,16.38
2022-09-25T00:39:57.926Z,17.35
2022-09-25T00:42:25.712Z,16.48
2022-09-25T00:44:58.915Z,17.50
2022-09-25T00:47:38.418Z,15.57
2022-09-25T00:50:19.088Z,17.30
2022-09-25T00:52:48.053Z,17.23
2022-09-25T00:55:17.896Z,17.48
2022-09-25T00:57:51.594Z,17.02
2022-09-25T01:00:19.061Z,17.20
2022-09-25T01:02:54.982Z,17.23
2022-09-25T01:05:27.355Z,16.48
2022-09-25T01:07:59.557Z,17.25
2022-09-25T01:10:30.005Z,16.55
2022-09-25T01:12:59.866Z,17.63
2022-09-25T01:15:47.461Z,16.75
2022-09-25T01:18:36.447Z,17.45
2022-09-25T01:21:18.641Z,17.70
2022-09-25T01:23:49.347Z,16.98
2022-09-25T01:26:21.847Z,17.00
2022-09-25T01:29:04.782Z,16.67
2022-09-25T01:31:47.860Z,17.85
2022-09-25T01:34:22.627Z,17.73
2022-09-25T01:37:14.582Z,18.27
2022-09-25T01:39:47.590Z,18.27
2022-09-25T01:42:26.038Z,18.38
2022-09-25T01:45:07.616Z,17.98
2022-09-25T01:47:40.086Z,17.60
2022-09-25T01:50:19.306Z,17.27
2022-09-25T01:52:52.792Z,17.88
2022-09-25T01:55:56.824Z,16.92
2022-09-25T01:58:38.756Z,18.52
2022-09-25T02:01:20.482Z,16.70
2022-09-25T02:06:21.673Z,18.00
2022-09-25T02:09:09.119Z,18.13
2022-09-25T02:11:44.494Z,19.67
2022-09-25T02:14:20.950Z,20.08
2022-09-25T02:16:54.814Z,19.70
2022-09-25T02:19:44.164Z,19.85
2022-09-25T02:22:23.383Z,20.92
2022-09-25T02:24:59.403Z,20.35
2022-09-25T02:27:36.679Z,18.60
2022-09-25T02:30:05.499Z,19.52
2022-09-25T02:32:33.781Z,20.90
2022-09-25T02:35:12.528Z,18.45
2022-09-25T02:37:39.828Z,19.05
2022-09-25T02:40:08.790Z,20.23
2022-09-25T02:42:49.430Z,19.70
2022-09-25T02:45:46.262Z,19.33
2022-09-25T02:48:39.274Z,20.13
2022-09-25T02:51:53.900Z,20.30
2022-09-25T02:54:50.300Z,19.08
2022-09-25T02:57:36.138Z,19.63
2022-09-25T03:00:07.547Z,19.27
2022-09-25T03:02:44.822Z,20.00
2022-09-25T03:05:20.294Z,19.67
2022-09-25T03:08:07.068Z,19.90
2022-09-25T03:10:37.211Z,21.30
2022-09-25T03:13:24.869Z,21.23
2022-09-25T03:16:20.381Z,17.70
2022-09-25T03:18:48.305Z,18.70
2022-09-25T03:21:16.215Z,18.80
2022-09-25T03:23:44.837Z,20.10
2022-09-25T03:26:12.212Z,19.48
2022-09-25T03:28:44.747Z,19.60
2022-09-25T03:31:14.774Z,19.33
2022-09-25T03:33:46.092Z,19.92
2022-09-25T03:36:22.128Z,19.45
2022-09-25T03:38:51.896Z,19.50
2022-09-25T03:41:22.261Z,19.90
2022-09-25T03:43:51.849Z,18.50
2022-09-25T03:46:25.597Z,19.60
2022-09-25T03:48:58.881Z,18.67
2022-09-25T03:51:28.243Z,19.30
2022-09-25T03:54:00.882Z,19.52
2022-09-25T03:56:32.804Z,20.52
2022-09-25T03:59:00.230Z,18.33
2022-09-25T04:01:36.557Z,20.38
2022-09-25T04:04:06.532Z,18.33
2022-09-25T04:06:39.840Z,20.27
2022-09-25T04:09:07.235Z,18.27
2022-09-25T04:11:38.389Z,19.40
2022-09-25T04:14:06.177Z,19.25
2022-09-25T04:16:35.799Z,19.25
2022-09-25T04:19:06.929Z,20.50
2022-09-25T04:21:36.821Z,19.60
2022-09-25T04:24:25.077Z,19.77
2022-09-25T04:27:14.665Z,20.67
2022-09-25T04:29:42.591Z,20.67
2022-09-25T04:32:28.378Z,20.90
2022-09-25T04:34:56.048Z,19.83
2022-09-25T04:37:28.633Z,21.58
2022-09-25T04:39:57.805Z,21.75
2022-09-25T04:42:28.259Z,21.60
2022-09-25T04:44:59.800Z,20.35
2022-09-25T04:47:33.973Z,20.02
2022-09-25T04:50:01.382Z,20.65
2022-09-25T04:52:30.172Z,21.42
2022-09-25T04:54:57.814Z,22.35
2022-09-25T04:57:53.510Z,22.35
2022-09-25T05:00:18.986Z,21.75
2022-09-25T05:02:47.152Z,20.20
2022-09-25T05:05:16.005Z,22.45
2022-09-25T05:08:00.597Z,22.52
2022-09-25T05:10:30.878Z,20.80
2022-09-25T05:13:00.574Z,20.70
2022-09-25T05:15:29.874Z,21.05
2022-09-25T05:18:26.816Z,21.17
2022-09-25T05:20:54.477Z,21.25
2022-09-25T05:23:23.935Z,20.85
2022-09-25T05:25:59.296Z,19.88
2022-09-25T05:28:26.817Z,19.85
2022-09-25T05:30:54.958Z,21.50
2022-09-25T05:33:22.279Z,20.38
2022-09-25T05:35:49.694Z,21.25
2022-09-25T05:38:17.054Z,19.83
2022-09-25T05:40:46.726Z,20.85
2022-09-25T05:43:14.806Z,20.75
2022-09-25T05:45:42.478Z,21.55
2022-09-25T05:48:10.882Z,21.75
2022-09-25T05:50:38.660Z,21.92
2022-09-25T05:53:06.323Z,22.70
2022-09-25T05:55:34.792Z,23.27
2022-09-25T05:58:04.071Z,22.75
2022-09-25T06:00:36.358Z,22.85
2022-09-25T06:03:03.876Z,23.38
2022-09-25T06:05:31.586Z,25.55
2022-09-25T06:07:58.969Z,27.15
2022-09-25T06:10:26.884Z,24.13
2022-09-25T06:13:01.432Z,24.13
2022-09-25T06:15:36.131Z,25.52
2022-09-25T06:18:11.736Z,25.13
2022-09-25T06:20:39.331Z,25.40
2022-09-25T06:23:06.698Z,26.60
2022-09-25T06:25:34.094Z,26.30
2022-09-25T06:28:02.574Z,26.02
2022-09-25T06:30:36.080Z,25.50
2022-09-25T06:33:12.765Z,24.20
2022-09-25T06:35:44.214Z,25.83
2022-09-25T06:38:12.539Z,25.38
2022-09-25T06:40:41.664Z,25.50
2022-09-25T06:43:18.968Z,25.38
2022-09-25T06:45:51.273Z,23.67
2022-09-25T06:48:21.874Z,24.58
2022-09-25T06:50:51.332Z,25.55
2022-09-25T06:53:21.015Z,26.38
2022-09-25T06:55:49.676Z,25.15
2022-09-25T06:58:21.050Z,24.48
2022-09-25T07:00:53.664Z,23.83
2022-09-25T07:03:40.178Z,24.33
2022-09-25T07:06:14.555Z,23.33
2022-09-25T07:08:45.189Z,24.00
2022-09-25T07:11:31.959Z,26.33
2022-09-25T07:13:59.481Z,24.70
2022-09-25T07:16:32.634Z,24.08
2022-09-25T07:19:01.118Z,25.73
2022-09-25T07:21:30.777Z,26.27
2022-09-25T07:23:59.065Z,26.23
2022-09-25T07:26:29.601Z,26.63
2022-09-25T07:29:06.450Z,27.30
2022-09-25T07:31:36.283Z,25.98
2022-09-25T07:34:09.620Z,27.17
2022-09-25T07:36:41.383Z,25.42
2022-09-25T07:41:46.566Z,24.70
2022-09-25T07:44:38.288Z,25.27
2022-09-25T07:47:07.279Z,25.13
2022-09-25T07:49:35.172Z,25.45
2022-09-25T07:52:06.871Z,24.55
2022-09-25T07:54:38.067Z,24.63
2022-09-25T07:57:05.874Z,23.15
2022-09-25T07:59:33.876Z,24.10
2022-09-25T08:02:01.559Z,22.70
2022-09-25T08:04:29.211Z,23.15
2022-09-25T08:07:00.131Z,23.30
2022-09-25T08:09:27.501Z,23.77
2022-09-25T08:11:54.870Z,22.92
2022-09-25T08:14:27.015Z,21.95
2022-09-25T08:16:56.089Z,21.23
2022-09-25T08:19:24.161Z,21.33
2022-09-25T08:21:54.612Z,21.73
2022-09-25T08:24:26.681Z,20.90
2022-09-25T08:26:57.854Z,21.65
2022-09-25T08:29:27.423Z,21.38
2022-09-25T08:31:57.912Z,20.83
2022-09-25T08:34:41.846Z,21.30
2022-09-25T08:37:12.826Z,21.27
2022-09-25T08:39:40.124Z,19.63
2022-09-25T08:42:15.609Z,20.55
2022-09-25T08:45:02.778Z,19.70
2022-09-25T08:47:55.507Z,19.73
2022-09-25T08:50:26.620Z,19.90
2022-09-25T08:53:14.948Z,18.50
2022-09-25T08:56:01.374Z,18.80
2022-09-25T08:58:42.699Z,20.25
2022-09-25T09:01:39.177Z,18.23
2022-09-25T09:04:26.593Z,18.17
2022-09-25T09:07:25.123Z,19.05
2022-09-25T09:09:56.536Z,18.23
2022-09-25T09:12:44.154Z,18.63
2022-09-25T09:15:43.040Z,18.23
2022-09-25T09:18:19.415Z,18.02
2022-09-25T09:20:58.547Z,18.50
2022-09-25T09:23:57.677Z,17.65
2022-09-25T09:26:38.892Z,18.88
2022-09-25T09:29:27.338Z,18.40
2022-09-25T09:32:16.689Z,17.27
2022-09-25T09:35:07.420Z,18.75
2022-09-25T09:37:57.976Z,18.73
2022-09-25T09:40:47.224Z,18.42
2022-09-25T09:43:47.544Z,16.85
2022-09-25T09:46:23.949Z,17.33
2022-09-25T09:49:05.648Z,17.60
2022-09-25T09:54:36.495Z,14.25
2022-09-25T09:57:12.645Z,16.02
2022-09-25T10:00:05.565Z,16.88
2022-09-25T10:02:56.963Z,16.17
2022-09-25T10:05:26.083Z,16.17
2022-09-25T10:07:54.020Z,16.13
2022-09-25T10:10:24.428Z,15.95
2022-09-25T10:12:54.108Z,15.48
2022-09-25T10:15:30.234Z,15.13
2022-09-25T10:18:00.962Z,15.68
2022-09-25T10:20:42.717Z,15.07
2022-09-25T10:23:33.592Z,15.30
2022-09-25T10:26:07.226Z,14.23
2022-09-25T10:28:39.072Z,14.98
2022-09-25T10:31:09.669Z,14.68
2022-09-25T10:33:37.460Z,14.23
2022-09-25T10:36:07.065Z,13.50
2022-09-25T10:38:53.480Z,12.77
2022-09-25T10:41:26.752Z,13.13
2022-09-25T10:44:02.635Z,13.40
2022-09-25T10:46:52.771Z,13.32
2022-09-25T10:49:40.132Z,13.40
2022-09-25T10:52:09.522Z,13.10
2022-09-25T10:54:43.709Z,12.70
2022-09-25T10:57:18.215Z,12.00
2022-09-25T10:59:51.282Z,12.80
2022-09-25T11:02:29.990Z,12.18
2022-09-25T11:04:57.667Z,11.40
2022-09-25T11:07:27.939Z,11.05
2022-09-25T11:09:59.907Z,10.13
2022-09-25T11:12:34.605Z,10.95
2022-09-25T11:15:09.981Z,11.98
2022-09-25T11:17:51.806Z,11.02
2022-09-25T11:20:33.293Z,11.35
2022-09-25T11:26:01.223Z,11.52
2022-09-25T11:28:59.027Z,11.57
2022-09-25T11:31:46.712Z,11.15
2022-09-25T11:34:38.843Z,11.18
2022-09-25T11:37:43.672Z,11.25
2022-09-25T11:40:48.225Z,10.85
2022-09-25T11:43:21.099Z,9.82
2022-09-25T11:45:57.066Z,10.43
2022-09-25T11:48:40.498Z,10.27
2022-09-25T11:51:39.346Z,11.40
2022-09-25T11:54:33.210Z,10.10
2022-09-25T11:57:11.354Z,9.63
2022-09-25T11:59:53.347Z,10.05
2022-09-25T12:02:38.888Z,10.07
2022-09-25T12:05:09.079Z,10.23
2022-09-25T12:07:56.882Z,10.45
2022-09-25T12:10:46.216Z,10.45
2022-09-25T12:13:24.166Z,10.13
2022-09-25T12:16:10.434Z,10.27
2022-09-25T12:19:09.591Z,9.57
2022-09-25T12:21:55.439Z,9.52
2022-09-25T12:24:34.465Z,9.60
2022-09-25T12:27:32.093Z,9.55
2022-09-25T12:30:22.119Z,8.90
2022-09-25T12:33:20.989Z,9.15
2022-09-25T12:35:59.861Z,9.40
2022-09-25T12:38:39.056Z,9.52
2022-09-25T12:41:18.375Z,9.60
2022-09-25T12:44:05.396Z,9.93
2022-09-25T12:46:57.777Z,9.35
2022-09-25T12:49:42.003Z,9.00
2022-09-25T12:52:30.358Z,8.88
2022-09-25T12:55:13.765Z,9.13
2022-09-25T12:57:49.446Z,9.00
2022-09-25T13:00:34.159Z,8.63
2022-09-25T13:03:15.915Z,9.07
2022-09-25T13:06:07.554Z,8.95
2022-09-25T13:08:55.639Z,9.98
2022-09-25T13:11:42.775Z,8.95
2022-09-25T13:14:51.390Z,8.18
2022-09-25T13:17:19.412Z,8.50
2022-09-25T13:19:55.296Z,9.40
2022-09-25T13:22:28.165Z,8.65
2022-09-25T13:25:14.187Z,9.13
2022-09-25T13:27:46.392Z,8.55
2022-09-25T13:30:30.794Z,8.95
2022-09-25T13:33:07.606Z,8.60
2022-09-25T13:35:35.379Z,8.45
2022-09-25T13:38:37.936Z,8.93
2022-09-25T13:41:17.410Z,9.52
2022-09-25T13:43:49.071Z,8.50
2022-09-25T13:46:23.735Z,9.07
2022-09-25T13:48:55.841Z,8.27
2022-09-25T13:51:35.850Z,8.38
2022-09-25T13:54:10.684Z,8.45
2022-09-25T13:56:41.106Z,8.38
2022-09-25T13:59:15.067Z,8.60
2022-09-25T14:01:49.822Z,8.68
2022-09-25T14:04:32.909Z,8.52
2022-09-25T14:07:23.472Z,8.00
2022-09-25T14:09:56.184Z,7.75
2022-09-25T14:12:43.282Z,8.60
2022-09-25T14:15:43.074Z,8.50
2022-09-25T14:18:19.984Z,8.63
2022-09-25T14:20:57.786Z,8.85
2022-09-25T14:23:30.152Z,8.63
2022-09-25T14:26:01.713Z,8.60
2022-09-25T14:28:43.760Z,8.00
2022-09-25T14:31:30.561Z,8.38
2022-09-25T14:34:05.386Z,7.80
2022-09-25T14:36:37.453Z,8.00
2022-09-25T14:39:54.394Z,8.23
2022-09-25T14:42:27.931Z,8.05
2022-09-25T14:45:22.171Z,7.80
2022-09-25T14:47:51.882Z,7.00
2022-09-25T14:50:38.710Z,7.30
2022-09-25T14:53:12.060Z,7.90
2022-09-25T14:55:49.812Z,7.57
2022-09-25T14:58:22.558Z,7.45
2022-09-25T15:00:53.604Z,6.85
2022-09-25T15:03:31.535Z,7.20
2022-09-25T15:06:04.121Z,7.07
2022-09-25T15:08:38.478Z,6.63
2022-09-25T15:11:14.355Z,7.60
2022-09-25T15:13:48.933Z,7.20
2022-09-25T15:16:41.614Z,7.40
2022-09-25T15:19:25.136Z,6.75
2022-09-25T15:21:58.108Z,7.15
2022-09-25T15:24:35.752Z,6.68
2022-09-25T15:27:09.037Z,6.70
2022-09-25T15:29:42.601Z,6.65
2022-09-25T15:32:18.641Z,6.28
2022-09-25T15:34:46.079Z,6.93
2022-09-25T15:37:26.466Z,6.47
2022-09-25T15:39:54.705Z,5.60
2022-09-25T15:42:22.782Z,5.85
2022-09-25T15:44:50.681Z,5.80
2022-09-25T15:47:36.337Z,5.20
2022-09-25T15:50:08.720Z,5.47
2022-09-25T15:52:36.188Z,5.53
2022-09-25T15:55:14.721Z,5.90
2022-09-25T15:57:42.685Z,6.07
2022-09-25T16:00:38.274Z,5.28
2022-09-25T16:03:42.873Z,5.38
2022-09-25T16:06:15.853Z,5.07
2022-09-25T16:08:44.030Z,5.88
2022-09-25T16:11:37.791Z,5.32
2022-09-25T16:14:22.237Z,6.20
2022-09-25T16:16:51.097Z,5.85
2022-09-25T16:19:34.346Z,5.80
2022-09-25T16:22:23.471Z,5.80
2022-09-25T16:24:53.979Z,6.65
2022-09-25T16:27:26.803Z,7.03
2022-09-25T16:29:59.990Z,7.25
2022-09-25T16:32:30.498Z,7.07
2022-09-25T16:35:00.757Z,6.45
2022-09-25T16:37:34.057Z,6.03
2022-09-25T16:40:25.732Z,8.77
2022-09-25T16:45:24.196Z,8.65
2022-09-25T16:47:52.402Z,9.40
2022-09-25T16:50:21.549Z,11.13
2022-09-25T16:52:50.598Z,10.43
2022-09-25T16:55:19.740Z,12.07
2022-09-25T16:57:47.185Z,11.70
2022-09-25T17:00:18.195Z,12.55
2022-09-25T17:02:48.576Z,11.95
2022-09-25T17:05:18.023Z,13.23
2022-09-25T17:07:52.718Z,13.43
2022-09-25T17:10:31.825Z,13.27
2022-09-25T17:13:02.160Z,14.00
2022-09-25T17:15:33.841Z,16.42
2022-09-25T17:18:14.523Z,17.45
2022-09-25T17:20:45.546Z,17.38
2022-09-25T17:23:18.456Z,18.52
2022-09-25T17:25:50.624Z,18.83
2022-09-25T17:28:18.142Z,18.80
2022-09-25T17:30:46.047Z,19.08
2022-09-25T17:33:19.650Z,20.05
2022-09-25T17:35:52.939Z,20.48
2022-09-25T17:38:22.729Z,21.15
2022-09-25T17:40:54.305Z,21.70
2022-09-25T17:45:56.270Z,21.60
2022-09-25T17:48:29.559Z,23.13
2022-09-25T17:51:06.143Z,25.02
2022-09-25T17:53:36.609Z,22.55
2022-09-25T17:56:04.208Z,23.83
2022-09-25T17:58:34.153Z,23.42
2022-09-25T18:01:06.673Z,25.00
2022-09-25T18:03:34.181Z,23.20
2022-09-25T18:06:03.771Z,23.45
2022-09-25T18:08:31.301Z,24.48
2022-09-25T18:11:03.238Z,24.05
2022-09-25T18:13:40.725Z,25.35
2022-09-25T18:16:21.408Z,23.95
2022-09-25T18:19:10.642Z,25.38
2022-09-25T18:21:56.715Z,24.17
2022-09-25T18:24:26.645Z,23.98
2022-09-25T18:27:01.846Z,25.33
2022-09-25T18:29:32.339Z,24.52
2022-09-25T18:32:00.430Z,24.65
2022-09-25T18:34:30.663Z,25.40
2022-09-25T18:37:02.779Z,25.08
2022-09-25T18:39:30.605Z,26.42
2022-09-25T18:42:02.802Z,26.05
2022-09-25T18:44:31.192Z,26.05
2022-09-25T18:46:58.671Z,26.02
2022-09-25T18:49:26.463Z,25.90
2022-09-25T18:51:54.664Z,26.35
2022-09-25T18:54:24.788Z,25.40
2022-09-25T18:56:52.580Z,24.67
2022-09-25T18:59:19.869Z,22.27
2022-09-25T19:01:47.655Z,14.40
2022-09-25T19:04:16.971Z,12.07
2022-09-25T19:06:44.397Z,10.85
2022-09-25T19:09:16.999Z,10.30
2022-09-25T19:11:45.496Z,9.05
2022-09-25T19:14:14.703Z,6.90
2022-09-25T19:16:45.784Z,6.50
2022-09-25T19:19:14.158Z,5.80
2022-09-25T19:21:46.583Z,5.80
2022-09-25T19:24:14.187Z,6.47
2022-09-25T19:26:42.758Z,5.85
2022-09-25T19:29:12.997Z,4.78
2022-09-25T19:31:40.601Z,4.47
2022-09-25T19:34:08.109Z,4.35
2022-09-25T19:36:38.841Z,4.07
2022-09-25T19:39:12.225Z,3.50
2022-09-25T19:41:43.399Z,3.42
2022-09-25T19:44:14.343Z,2.83
2022-09-25T19:46:45.953Z,3.03
2022-09-25T19:49:15.221Z,3.35
2022-09-25T19:51:43.766Z,3.28
2022-09-25T19:54:14.125Z,3.55
2022-09-25T19:56:46.640Z,3.83
2022-09-25T19:59:17.815Z,4.50
2022-09-25T20:01:45.856Z,4.57
2022-09-25T20:04:20.486Z,4.40
2022-09-25T20:06:51.174Z,3.78
2022-09-25T20:09:21.193Z,3.90
2022-09-25T20:11:48.768Z,3.97
2022-09-25T20:14:16.111Z,3.67
2022-09-25T20:16:48.536Z,4.00
2022-09-25T20:19:16.388Z,3.33
2022-09-25T20:21:43.683Z,3.95
2022-09-25T20:24:14.249Z,3.78
2022-09-25T20:26:43.962Z,4.07
2022-09-25T20:29:14.114Z,4.30
2022-09-25T20:31:45.526Z,4.30
2022-09-25T20:34:15.885Z,4.05
2022-09-25T20:36:43.951Z,4.00
2022-09-25T20:39:13.653Z,4.10
2022-09-25T20:41:44.617Z,4.13
2022-09-25T20:44:19.529Z,3.90
2022-09-25T20:46:46.895Z,3.72
2022-09-25T20:49:17.808Z,3.72
2022-09-25T20:51:45.457Z,3.63
2022-09-25T20:54:12.991Z,3.47
2022-09-25T20:56:46.936Z,3.75
2022-09-25T20:59:17.869Z,3.85
2022-09-25T21:01:45.245Z,3.78
2022-09-25T21:04:12.882Z,3.75
2022-09-25T21:06:44.672Z,3.83
2022-09-25T21:09:23.162Z,3.75
2022-09-25T21:11:57.016Z,4.10
2022-09-25T21:14:27.255Z,4.07
2022-09-25T21:16:56.371Z,4.32
2022-09-25T21:19:23.959Z,4.45
2022-09-25T21:21:53.877Z,4.53
2022-09-25T21:24:24.228Z,4.38
2022-09-25T21:26:51.651Z,4.25
2022-09-25T21:29:19.928Z,4.40
2022-09-25T21:31:50.347Z,4.53
2022-09-25T21:34:19.551Z,4.65
2022-09-25T21:36:49.508Z,4.88
2022-09-25T21:39:17.125Z,5.82
2022-09-25T21:41:44.995Z,5.03
2022-09-25T21:44:14.809Z,5.82
2022-09-25T21:46:42.776Z,4.93
2022-09-25T21:49:19.139Z,6.65
2022-09-25T21:51:47.430Z,6.63
2022-09-25T21:54:16.598Z,7.53
2022-09-25T21:56:48.665Z,7.88
2022-09-25T21:59:18.809Z,8.32
2022-09-25T22:01:46.357Z,8.57
2022-09-25T22:04:14.205Z,8.10
2022-09-25T22:06:49.223Z,8.63
2022-09-25T22:09:27.425Z,8.73
2022-09-25T22:11:54.868Z,7.68
2022-09-25T22:14:24.863Z,8.10
2022-09-25T22:16:54.631Z,8.20
2022-09-25T22:19:30.471Z,8.60
2022-09-25T22:21:59.365Z,7.65
2022-09-25T22:24:27.219Z,7.88
2022-09-25T22:26:55.722Z,7.65
2022-09-25T22:29:23.545Z,8.27
2022-09-25T22:31:53.602Z,7.60
2022-09-25T22:34:26.727Z,8.65
2022-09-25T22:36:59.865Z,8.65
2022-09-25T22:39:41.747Z,8.30
2022-09-25T22:42:09.190Z,7.72
2022-09-25T22:44:38.543Z,7.57
2022-09-25T22:47:05.863Z,7.35
2022-09-25T22:49:35.538Z,7.35
2022-09-25T22:52:07.952Z,7.75
2022-09-25T22:54:35.265Z,7.00
2022-09-25T22:57:05.109Z,6.97
2022-09-25T22:59:34.867Z,7.90
2022-09-25T23:02:04.475Z,7.40
2022-09-25T23:04:31.758Z,7.25
2022-09-25T23:06:59.040Z,7.30
2022-09-25T23:09:26.969Z,7.85
2022-09-25T23:11:55.904Z,7.43
2022-09-25T23:14:28.280Z,7.03
2022-09-25T23:16:55.865Z,7.10
2022-09-25T23:19:26.264Z,7.13
2022-09-25T23:21:54.710Z,7.45
2022-09-25T23:24:23.241Z,7.45
2022-09-25T23:26:53.182Z,7.25
2022-09-25T23:29:21.930Z,7.90
2022-09-25T23:31:50.282Z,7.82
2022-09-25T23:34:18.489Z,7.40
2022-09-25T23:36:45.966Z,8.10
2022-09-25T23:39:22.332Z,7.75
2022-09-25T23:41:49.712Z,7.38
2022-09-25T23:44:17.439Z,8.15
2022-09-25T23:46:44.993Z,7.72
2022-09-25T23:49:12.870Z,8.10
2022-09-25T23:51:42.511Z,7.50
2022-09-25T23:54:12.881Z,8.60
2022-09-25T23:56:42.565Z,7.82
2022-09-25T23:59:11.876Z,8.18
